Airfield :
LOGIN :

Register | Disclaimer

   EN    FR    IT 

 










Legend :    VFR   Marginal VFR   IFR   Intensive IFR   Very Intensive IFR
Visi :
Ceiling :
>= 8 km
>= 3000ft
5 to 8 km
1000 to 3000 ft
1500m to 5 km
500 to 1000 ft
800 to 1500m
200 to 500 ft
< 800m
< 200 ft
Symbols :   Thunderstorms  Fog  Heavy snow  Heavy precipitations  Wind > 20 kt
SIGMETs :     Misc.  Thunderstorms  Icing  Turbulence  Mountain Waves  Volcanic Ashes






- Airport Elevation : 177 ft
- IATA code : BRI


LIBD - Palese Macchie Bari

CURRENT METAR :
  • 231420Z 03006KT 350V110 CAVOK 16/10 Q1004

EXPIRED METARs :
  • 231350Z 01007KT 330V060 CAVOK 18/10 Q1004
  • 231320Z 36008KT 330V040 CAVOK 17/10 Q1004
  • 231250Z 34009KT 320V030 CAVOK 17/09 Q1004
  • 231220Z 35007KT 310V040 CAVOK 18/08 Q1004
  • 231150Z 34007KT 300V020 CAVOK 18/06 Q1004
  • 231120Z 34008KT 300V010 CAVOK 17/09 Q1005
  • 231050Z 36008KT 320V030 CAVOK 16/09 Q1005
  • 231020Z 01007KT CAVOK 17/09 Q1005
  • 230950Z 01007KT 320V040 CAVOK 17/08 Q1005
  • 230920Z 27006KT 240V310 CAVOK 18/05 Q1005

TAF TAF LIBD
Valid from the 23 at 12:00 until the 24 at 12:00 UTC


231100Z 2312/2412 02010KT 9999 SCT030
BECMG 2312/2314 31012KT
TEMPO 2318/2320 23007KT
TEMPO 2409/2412 SHRA



MET'MAP, your aeronautical weather chart ! - Copyright ORBIFLY December 2007 - Disclaimer

ORBIFLY MET'MAP TEAM :

Programming & Development : Alexandra Zaïnal
Original concept : Baudouin d'Aumeries
Technical & hardware support : Manuel Goepfert
Assistance : Marc-Olivier Méhu




SOURCES & CREDITS :

   NOAA